Terminal Aerodrome Forecast
Issued by NWS

Home | Current Version | Previous Version | Text Only | Print | Product List | Glossary On
Versions: 1 2 3 4 5 6 7 8 9 10 11 12 13 14 15
148
FTUS44 KLZK 271136
TAFHRO
TAF
KHRO 271136Z 2712/2812 12005KT 3SM BR BKN002 BKN250
      TEMPO 2712/2714 1SM BR BKN002
     FM271500 13006KT P6SM VCSH FEW020 SCT100 BKN250
     FM271800 14008KT P6SM VCSH SCT040=

USA.gov is the U.S. government's official web portal to all federal, state and local government web resources and services.